KHEZ/HEZ METAR and TAF weather

Enter ICAO airport designator
Station Type Date Time Source
KHEZ METAR 2020/09/22 01:56 UTC NOAA

KHEZ 220156Z AUTO 10010G17KT 10SM FEW010 OVC043 19/18 A3013 RMK AO2 SLP201 T01890178


Station Type Date Time Source
KHEZ Decoded METAR 2020/09/22 01:56 UTC NOAA

Natchez, Hardy-Anders Field Natchez-Adams County Airport, MS, United States (KHEZ) 31-37N 091-18W
Sep 21, 2020 - 09:56 PM EDT / 2020.09.22 0156 UTC
Wind: from the E (100 degrees) at 12 MPH (10 KT) gusting to 20 MPH (17 KT):0
Visibility: 10 mile(s):0
Sky conditions: overcast
Temperature: 66.0 F (18.9 C)
Dew Point: 64.0 F (17.8 C)
Relative Humidity: 93%
Pressure (altimeter): 30.13 in. Hg (1020 hPa)
ob: KHEZ 220156Z AUTO 10010G17KT 10SM FEW010 OVC043 19/18 A3013 RMK AO2 SLP201 T01890178
cycle: 2

Station Type Date Time Source
KHEZ TAF UTC NOAA

Error!

Example: see airport list